createdAt,value
2023-06-11T00:00:02.033Z,1000.00
2023-06-11T00:01:02.028Z,1000.00
2023-06-11T00:02:02.079Z,1000.00
2023-06-11T00:03:02.133Z,1000.00
2023-06-11T00:04:02.228Z,1000.00
2023-06-11T00:05:02.138Z,1000.00
2023-06-11T00:06:02.161Z,1000.00
2023-06-11T00:07:02.311Z,1000.00
2023-06-11T00:08:02.357Z,1000.00
2023-06-11T00:09:02.304Z,1000.00
2023-06-11T00:10:02.307Z,1000.00
2023-06-11T00:11:02.346Z,1000.00
2023-06-11T00:12:02.433Z,1000.00
2023-06-11T00:13:02.452Z,1000.00
2023-06-11T00:14:02.476Z,1000.00
2023-06-11T00:15:02.567Z,1000.00
2023-06-11T00:16:02.636Z,1000.00
2023-06-11T00:17:02.659Z,1000.00
2023-06-11T00:18:02.819Z,1000.00
2023-06-11T00:19:02.690Z,1000.00
2023-06-11T00:20:02.759Z,1000.00
2023-06-11T00:21:02.789Z,1000.00
2023-06-11T00:22:02.813Z,1000.00
2023-06-11T00:23:02.864Z,1000.00
2023-06-11T00:24:02.847Z,1000.00
2023-06-11T00:25:02.877Z,1000.00
2023-06-11T00:26:02.865Z,1000.00
2023-06-11T00:27:02.980Z,1000.00
2023-06-11T00:28:02.950Z,1000.00
2023-06-11T00:29:02.925Z,1000.00
2023-06-11T00:30:02.971Z,1000.00
2023-06-11T00:31:03.061Z,1000.00
2023-06-11T00:32:03.181Z,1000.00
2023-06-11T00:33:03.217Z,1000.00
2023-06-11T00:34:03.239Z,1000.00
2023-06-11T00:35:03.232Z,1000.00
2023-06-11T00:36:03.279Z,1000.00
2023-06-11T00:37:03.292Z,1000.00
2023-06-11T00:38:03.359Z,1000.00
2023-06-11T00:39:03.420Z,1000.00
2023-06-11T00:40:03.470Z,1000.00
2023-06-11T00:41:03.503Z,1000.00
2023-06-11T00:42:03.539Z,1000.00
2023-06-11T00:43:03.594Z,1000.00
2023-06-11T00:44:03.598Z,1000.00
2023-06-11T00:45:03.605Z,1000.00
2023-06-11T00:46:03.858Z,1000.00
2023-06-11T00:47:03.676Z,1000.00
2023-06-11T00:48:03.753Z,1000.00
2023-06-11T00:49:03.737Z,1000.00
2023-06-11T00:50:03.738Z,1000.00
2023-06-11T00:51:03.751Z,1000.00
2023-06-11T00:52:03.765Z,1000.00
2023-06-11T00:53:03.776Z,1000.00
2023-06-11T00:54:03.859Z,1000.00
2023-06-11T00:55:03.800Z,1000.00
2023-06-11T00:56:03.836Z,1000.00
2023-06-11T00:57:03.843Z,1000.00
2023-06-11T00:58:03.880Z,1000.00
2023-06-11T00:59:03.877Z,1000.00
2023-06-11T01:00:03.920Z,1000.00
2023-06-11T01:01:04.009Z,1000.00
2023-06-11T01:02:04.038Z,1000.00
2023-06-11T01:03:04.125Z,1000.00
2023-06-11T01:04:04.156Z,1000.00
2023-06-11T01:05:04.198Z,1000.00
2023-06-11T01:06:04.107Z,1000.00
2023-06-11T01:07:04.183Z,1000.00
2023-06-11T01:08:04.184Z,1000.00
2023-06-11T01:09:04.236Z,1000.00
2023-06-11T01:10:04.238Z,1000.00
2023-06-11T01:11:04.287Z,1000.00
2023-06-11T01:12:04.310Z,1000.00
2023-06-11T01:13:04.305Z,1000.00
2023-06-11T01:14:04.336Z,1000.00
2023-06-11T01:15:04.416Z,1000.00
2023-06-11T01:16:04.468Z,1000.00
2023-06-11T01:17:04.505Z,1000.00
2023-06-11T01:18:04.568Z,1000.00
2023-06-11T01:19:04.584Z,1000.00
2023-06-11T01:20:04.584Z,1000.00
2023-06-11T01:21:04.590Z,1000.00
2023-06-11T01:22:04.619Z,1000.00
2023-06-11T01:23:04.640Z,1000.00
2023-06-11T01:24:04.717Z,1000.00
2023-06-11T01:25:04.719Z,1000.00
2023-06-11T01:26:04.719Z,1000.00
2023-06-11T01:27:04.793Z,1000.00
2023-06-11T01:28:04.856Z,1000.00
2023-06-11T01:29:04.907Z,1000.00
2023-06-11T01:30:04.948Z,1000.00
2023-06-11T01:31:05.048Z,1000.00
2023-06-11T01:32:05.098Z,1000.00
2023-06-11T01:33:05.132Z,1000.00
2023-06-11T01:34:05.153Z,1000.00
2023-06-11T01:35:06.118Z,1000.00
2023-06-11T01:36:05.156Z,1000.00
2023-06-11T01:37:05.213Z,1000.00
2023-06-11T01:38:05.302Z,1000.00
2023-06-11T01:39:05.303Z,1000.00
2023-06-11T01:40:05.431Z,1000.00
2023-06-11T01:41:05.376Z,1000.00
2023-06-11T01:42:05.441Z,1000.00
2023-06-11T01:43:05.420Z,1000.00
2023-06-11T01:44:05.468Z,1000.00
2023-06-11T01:45:05.487Z,1000.00
2023-06-11T01:46:05.521Z,1000.00
2023-06-11T01:47:05.615Z,1000.00
2023-06-11T01:48:05.663Z,1000.00
2023-06-11T01:49:05.721Z,1000.00
2023-06-11T01:50:05.657Z,1000.00
2023-06-11T01:51:05.702Z,1000.00
2023-06-11T01:52:05.670Z,1000.00
2023-06-11T01:53:05.696Z,1000.00
2023-06-11T01:54:05.707Z,1000.00
2023-06-11T01:55:05.764Z,1000.00
2023-06-11T01:56:05.759Z,1000.00
2023-06-11T01:57:05.815Z,1000.00
2023-06-11T01:58:05.833Z,1000.00
2023-06-11T01:59:05.841Z,1000.00
2023-06-11T02:00:05.872Z,1000.00
2023-06-11T02:01:05.891Z,1000.00
2023-06-11T02:02:06.015Z,1000.00
2023-06-11T02:03:05.982Z,1000.00
2023-06-11T02:04:06.036Z,1000.00
2023-06-11T02:05:06.064Z,1000.00
2023-06-11T02:06:06.114Z,1000.00
2023-06-11T02:07:06.151Z,1000.00
2023-06-11T02:08:06.175Z,1000.00
2023-06-11T02:09:06.187Z,1000.00
2023-06-11T02:10:06.221Z,1000.00
2023-06-11T02:11:06.260Z,1000.00
2023-06-11T02:12:06.240Z,1000.00
2023-06-11T02:13:06.273Z,1000.00
2023-06-11T02:14:06.316Z,1000.00
2023-06-11T02:15:06.339Z,1000.00
2023-06-11T02:16:06.371Z,1000.00
2023-06-11T02:17:06.449Z,1000.00
2023-06-11T02:18:06.445Z,1000.00
2023-06-11T02:19:06.465Z,1000.00
2023-06-11T02:20:06.485Z,1000.00
2023-06-11T02:21:06.481Z,1000.00
2023-06-11T02:22:06.488Z,1000.00
2023-06-11T02:23:06.559Z,1000.00
2023-06-11T02:24:06.567Z,1000.00
2023-06-11T02:25:06.557Z,1000.00
2023-06-11T02:26:06.638Z,1000.00
2023-06-11T02:27:06.625Z,1000.00
2023-06-11T02:28:06.654Z,1000.00
2023-06-11T02:29:06.654Z,1000.00
2023-06-11T02:30:06.702Z,1000.00
2023-06-11T02:31:06.765Z,1000.00
2023-06-11T02:32:06.891Z,1000.00
2023-06-11T02:33:06.921Z,1000.00
2023-06-11T02:34:06.865Z,1000.00
2023-06-11T02:35:06.853Z,1000.00
2023-06-11T02:36:06.882Z,1000.00
2023-06-11T02:37:06.902Z,1000.00
2023-06-11T02:38:06.908Z,1000.00
2023-06-11T02:39:06.976Z,1000.00
2023-06-11T02:40:06.984Z,1000.00
2023-06-11T02:41:06.978Z,1000.00
2023-06-11T02:42:07.055Z,1000.00
2023-06-11T02:43:07.019Z,1000.00
2023-06-11T02:44:07.057Z,1000.00
2023-06-11T02:45:07.070Z,1000.00
2023-06-11T02:46:07.166Z,1000.00
2023-06-11T02:47:07.127Z,1000.00
2023-06-11T02:48:07.221Z,1000.00
2023-06-11T02:49:07.189Z,1000.00
2023-06-11T02:50:07.232Z,1000.00
2023-06-11T02:51:07.314Z,1000.00
2023-06-11T02:52:07.308Z,1000.00
2023-06-11T02:53:07.328Z,1000.00
2023-06-11T02:54:07.353Z,1000.00
2023-06-11T02:55:07.386Z,1000.00
2023-06-11T02:56:07.377Z,1000.00
2023-06-11T02:57:07.390Z,1000.00
2023-06-11T02:58:07.428Z,1000.00
2023-06-11T02:59:07.477Z,1000.00
2023-06-11T03:00:07.534Z,1000.00
2023-06-11T03:01:07.564Z,1000.00
2023-06-11T03:02:07.555Z,1000.00
2023-06-11T03:03:07.641Z,1000.00
2023-06-11T03:04:07.718Z,1000.00
2023-06-11T03:05:07.816Z,1000.00
2023-06-11T03:06:07.756Z,1000.00
2023-06-11T03:07:07.755Z,1000.00
2023-06-11T03:08:07.803Z,1000.00
2023-06-11T03:09:07.818Z,1000.00
2023-06-11T03:10:07.856Z,1000.00
2023-06-11T03:11:07.905Z,1000.00
2023-06-11T03:12:07.858Z,1000.00
2023-06-11T03:13:07.947Z,1000.00
2023-06-11T03:14:07.916Z,1000.00
2023-06-11T03:15:08.048Z,1000.00
2023-06-11T03:16:08.008Z,1000.00
2023-06-11T03:17:08.015Z,1000.00
2023-06-11T03:18:08.006Z,1000.00
2023-06-11T03:19:08.039Z,1000.00
2023-06-11T03:20:08.047Z,1000.00
2023-06-11T03:21:08.044Z,1000.00
2023-06-11T03:22:08.090Z,1000.00
2023-06-11T03:23:08.101Z,1000.00
2023-06-11T03:24:08.214Z,1000.00
2023-06-11T03:25:08.321Z,1000.00
2023-06-11T03:26:08.153Z,1000.00
2023-06-11T03:27:08.164Z,1000.00
2023-06-11T03:28:08.241Z,1000.00
2023-06-11T03:29:08.273Z,1000.00
2023-06-11T03:30:08.347Z,1000.00
2023-06-11T03:31:08.370Z,1000.00
2023-06-11T03:32:10.494Z,1000.00
2023-06-11T03:33:08.438Z,1000.00
2023-06-11T03:34:08.376Z,1000.00
2023-06-11T03:35:08.737Z,1000.00
2023-06-11T03:36:08.388Z,1000.00
2023-06-11T03:37:08.360Z,1000.00
2023-06-11T03:38:08.331Z,1000.00
2023-06-11T03:39:08.362Z,1000.00
2023-06-11T03:40:08.348Z,1000.00
2023-06-11T03:41:08.358Z,1000.00
2023-06-11T03:42:08.332Z,1000.00
2023-06-11T03:43:08.332Z,1000.00
2023-06-11T03:44:08.278Z,1000.00
2023-06-11T03:45:08.345Z,1000.00
2023-06-11T03:46:08.269Z,1000.00
2023-06-11T03:47:08.295Z,1000.00
2023-06-11T03:48:08.714Z,1000.00
2023-06-11T03:49:08.274Z,1000.00
2023-06-11T03:50:08.273Z,1000.00
2023-06-11T03:51:08.232Z,1000.00
2023-06-11T03:52:08.223Z,1000.00
2023-06-11T03:53:08.236Z,1000.00
2023-06-11T03:54:08.260Z,1000.00
2023-06-11T03:55:08.576Z,1000.00
2023-06-11T03:56:08.259Z,1000.00
2023-06-11T03:57:08.220Z,1000.00
2023-06-11T03:58:08.235Z,1000.00
2023-06-11T03:59:08.197Z,1000.00
2023-06-11T04:00:08.177Z,1000.00
2023-06-11T04:01:08.183Z,1000.00
2023-06-11T04:02:08.215Z,1000.00
2023-06-11T04:03:08.490Z,1000.00
2023-06-11T04:04:08.247Z,1000.00
2023-06-11T04:05:08.529Z,1000.00
2023-06-11T04:06:08.236Z,1000.00
2023-06-11T04:07:08.281Z,1000.00
2023-06-11T04:08:08.768Z,1000.00
2023-06-11T04:09:08.338Z,1000.00
2023-06-11T04:10:08.460Z,1000.00
2023-06-11T04:11:08.516Z,1000.00
2023-06-11T04:12:08.462Z,1000.00
2023-06-11T04:13:08.529Z,1000.00
2023-06-11T04:14:08.594Z,1000.00
2023-06-11T04:15:08.907Z,1000.00
2023-06-11T04:16:08.610Z,1000.00
2023-06-11T04:17:08.686Z,1000.00
2023-06-11T04:18:08.782Z,1000.00
2023-06-11T04:19:08.748Z,1000.00
2023-06-11T04:20:08.794Z,1000.00
2023-06-11T04:21:08.776Z,1000.00
2023-06-11T04:22:08.733Z,1000.00
2023-06-11T04:23:08.796Z,1000.00
2023-06-11T04:24:09.749Z,1000.00
2023-06-11T04:25:09.161Z,1000.00
2023-06-11T04:26:09.078Z,1000.00
2023-06-11T04:27:09.012Z,1000.00
2023-06-11T04:28:09.033Z,1000.00
2023-06-11T04:29:09.092Z,1000.00
2023-06-11T04:30:09.168Z,1000.00
2023-06-11T04:31:09.195Z,1000.00
2023-06-11T04:32:09.236Z,1000.00
2023-06-11T04:33:09.354Z,1000.00
2023-06-11T04:34:09.300Z,1000.00
2023-06-11T04:35:10.099Z,1000.00
2023-06-11T04:36:09.299Z,1000.00
2023-06-11T04:37:09.339Z,1000.00
2023-06-11T04:38:09.278Z,1000.00
2023-06-11T04:39:09.271Z,1000.00
2023-06-11T04:40:09.295Z,1000.00
2023-06-11T04:41:09.304Z,1000.00
2023-06-11T04:42:09.268Z,1000.00
2023-06-11T04:43:09.261Z,1000.00
2023-06-11T04:44:09.274Z,1000.00
2023-06-11T04:45:09.480Z,1000.00
2023-06-11T04:46:09.248Z,1000.00
2023-06-11T04:47:09.243Z,1000.00
2023-06-11T04:48:09.227Z,1000.00
2023-06-11T04:49:09.259Z,1000.00
2023-06-11T04:50:09.199Z,1000.00
2023-06-11T04:51:09.206Z,1000.00
2023-06-11T04:52:09.227Z,1000.00
2023-06-11T04:53:09.206Z,1000.00
2023-06-11T04:54:09.185Z,1000.00
2023-06-11T04:55:09.565Z,1000.00
2023-06-11T04:56:09.157Z,1000.00
2023-06-11T04:57:09.150Z,1000.00
2023-06-11T04:58:09.135Z,1000.00
2023-06-11T04:59:09.164Z,1000.00
2023-06-11T05:00:09.379Z,1000.00
2023-06-11T05:01:09.137Z,1000.00
2023-06-11T05:02:09.152Z,1000.00
2023-06-11T05:03:09.238Z,1000.00
2023-06-11T05:04:09.092Z,1000.00
2023-06-11T05:05:09.408Z,1000.00
2023-06-11T05:06:09.102Z,1000.00
2023-06-11T05:07:09.131Z,1000.00
2023-06-11T05:08:09.084Z,1000.00
2023-06-11T05:09:09.110Z,1000.00
2023-06-11T05:10:09.082Z,1000.00
2023-06-11T05:11:09.081Z,1000.00
2023-06-11T05:12:09.059Z,1000.00
2023-06-11T05:13:09.069Z,1000.00
2023-06-11T05:14:09.066Z,1000.00
2023-06-11T05:16:09.043Z,1000.00
2023-06-11T05:17:09.039Z,1000.00
2023-06-11T05:18:09.089Z,1000.00
2023-06-11T05:19:09.023Z,1000.00
2023-06-11T05:20:09.073Z,1000.00
2023-06-11T05:21:09.018Z,1000.00
2023-06-11T05:22:09.036Z,1000.00
2023-06-11T05:23:08.977Z,1000.00
2023-06-11T05:24:09.271Z,1000.00
2023-06-11T05:25:09.144Z,1000.00
2023-06-11T05:26:08.953Z,1000.00
2023-06-11T05:27:08.967Z,1000.00
2023-06-11T05:28:08.960Z,1000.00
2023-06-11T05:29:08.974Z,1000.00
2023-06-11T05:30:08.933Z,1000.00
2023-06-11T05:31:08.926Z,1000.00
2023-06-11T05:32:08.972Z,1000.00
2023-06-11T05:33:08.929Z,1000.00
2023-06-11T05:34:08.905Z,1000.00
2023-06-11T05:35:09.132Z,1000.00
2023-06-11T05:36:08.871Z,1000.00
2023-06-11T05:37:08.934Z,1000.00
2023-06-11T05:38:09.283Z,1000.00
2023-06-11T05:39:08.922Z,1000.00
2023-06-11T05:40:08.951Z,1000.00
2023-06-11T05:41:08.953Z,1000.00
2023-06-11T05:42:09.013Z,1000.00
2023-06-11T05:43:09.041Z,1000.00
2023-06-11T05:44:09.037Z,1000.00
2023-06-11T05:45:09.276Z,1000.00
2023-06-11T05:46:09.118Z,1000.00
2023-06-11T05:47:09.171Z,1000.00
2023-06-11T05:48:09.213Z,1000.00
2023-06-11T05:49:09.199Z,1000.00
2023-06-11T05:50:09.252Z,1000.00
2023-06-11T05:51:09.294Z,1000.00
2023-06-11T05:52:09.281Z,862.70
2023-06-11T05:53:09.287Z,813.67
2023-06-11T05:54:09.281Z,860.25
2023-06-11T05:55:09.628Z,685.24
2023-06-11T05:56:09.350Z,412.50
2023-06-11T05:57:09.418Z,485.00
2023-06-11T05:58:09.417Z,615.26
2023-06-11T05:59:09.489Z,563.65
2023-06-11T06:00:09.471Z,728.36
2023-06-11T06:01:09.547Z,832.92
2023-06-11T06:02:09.700Z,800.63
2023-06-11T06:03:09.747Z,752.41
2023-06-11T06:04:09.749Z,793.43
2023-06-11T06:05:10.025Z,1000.00
2023-06-11T06:06:09.672Z,861.52
2023-06-11T06:07:09.744Z,686.07
2023-06-11T06:08:09.755Z,709.89
2023-06-11T06:09:09.780Z,454.11
2023-06-11T06:10:09.811Z,470.61
2023-06-11T06:11:09.872Z,483.65
2023-06-11T06:12:09.891Z,424.29
2023-06-11T06:13:09.933Z,227.35
2023-06-11T06:14:09.999Z,188.90
2023-06-11T06:15:10.328Z,258.85
2023-06-11T06:16:10.046Z,245.50
2023-06-11T06:17:10.011Z,169.92
2023-06-11T06:18:10.148Z,142.29
2023-06-11T06:19:10.187Z,154.10
2023-06-11T06:20:10.195Z,113.28
2023-06-11T06:21:10.198Z,121.86
2023-06-11T06:22:10.282Z,135.72
2023-06-11T06:23:10.255Z,111.39
2023-06-11T06:24:10.322Z,80.33
2023-06-11T06:25:10.469Z,52.03
2023-06-11T06:26:10.330Z,51.83
2023-06-11T06:27:10.411Z,68.62
2023-06-11T06:28:10.421Z,101.64
2023-06-11T06:29:10.431Z,90.00
2023-06-11T06:30:10.452Z,64.92
2023-06-11T06:31:10.568Z,98.62
2023-06-11T06:32:10.625Z,132.37
2023-06-11T06:33:10.574Z,118.64
2023-06-11T06:34:10.602Z,121.29
2023-06-11T06:35:10.936Z,132.44
2023-06-11T06:36:10.707Z,55.68
2023-06-11T06:37:10.722Z,27.34
2023-06-11T06:38:10.788Z,20.45
2023-06-11T06:39:10.798Z,18.31
2023-06-11T06:40:11.018Z,16.48
2023-06-11T06:41:10.837Z,17.73
2023-06-11T06:42:10.914Z,13.81
2023-06-11T06:43:10.921Z,12.46
2023-06-11T06:44:10.975Z,7.11
2023-06-11T06:45:11.937Z,7.10
2023-06-11T06:46:10.995Z,6.42
2023-06-11T06:47:10.973Z,7.35
2023-06-11T06:48:11.111Z,8.94
2023-06-11T06:49:10.966Z,5.39
2023-06-11T06:50:11.194Z,3.42
2023-06-11T06:51:10.990Z,3.78
2023-06-11T06:52:10.920Z,5.30
2023-06-11T06:53:10.930Z,4.77
2023-06-11T06:54:10.938Z,6.21
2023-06-11T06:55:10.968Z,6.42
2023-06-11T06:56:10.928Z,7.43
2023-06-11T06:57:10.941Z,5.94
2023-06-11T06:58:10.930Z,4.77
2023-06-11T06:59:10.942Z,3.92
2023-06-11T07:00:11.185Z,3.82
2023-06-11T07:01:10.929Z,3.48
2023-06-11T07:02:10.895Z,3.22
2023-06-11T07:03:10.911Z,3.18
2023-06-11T07:04:10.867Z,4.73
2023-06-11T07:05:10.886Z,8.52
2023-06-11T07:06:10.906Z,11.21
2023-06-11T07:07:10.843Z,9.99
2023-06-11T07:08:10.825Z,7.63
2023-06-11T07:09:10.840Z,8.98
2023-06-11T07:10:11.154Z,14.32
2023-06-11T07:11:10.865Z,11.93
2023-06-11T07:12:10.821Z,11.40
2023-06-11T07:13:10.831Z,12.66
2023-06-11T07:14:10.801Z,14.22
2023-06-11T07:15:10.840Z,21.51
2023-06-11T07:16:10.866Z,26.91
2023-06-11T07:17:10.774Z,26.69
2023-06-11T07:18:10.816Z,29.32
2023-06-11T07:19:10.744Z,29.48
2023-06-11T07:20:11.095Z,23.27
2023-06-11T07:21:10.886Z,20.18
2023-06-11T07:22:10.758Z,23.47
2023-06-11T07:23:10.728Z,23.97
2023-06-11T07:24:10.768Z,20.51
2023-06-11T07:25:10.744Z,24.24
2023-06-11T07:26:10.736Z,20.84
2023-06-11T07:27:10.705Z,26.29
2023-06-11T07:28:10.702Z,29.50
2023-06-11T07:29:12.786Z,29.48
2023-06-11T07:30:10.939Z,38.17
2023-06-11T07:31:10.681Z,57.87
2023-06-11T07:32:10.762Z,56.07
2023-06-11T07:33:10.807Z,60.40
2023-06-11T07:34:10.825Z,36.65
2023-06-11T07:35:10.806Z,46.24
2023-06-11T07:36:10.861Z,55.54
2023-06-11T07:37:10.876Z,52.88
2023-06-11T07:38:10.936Z,44.49
2023-06-11T07:39:10.912Z,37.19
2023-06-11T07:40:11.244Z,38.58
2023-06-11T07:41:11.003Z,38.57
2023-06-11T07:42:11.023Z,46.17
2023-06-11T07:43:11.058Z,34.53
2023-06-11T07:44:11.041Z,23.06
2023-06-11T07:45:11.148Z,22.20
2023-06-11T07:46:12.807Z,21.08
2023-06-11T07:47:11.158Z,19.02
2023-06-11T07:48:11.242Z,14.54
2023-06-11T07:49:11.203Z,11.69
2023-06-11T07:50:11.283Z,18.67
2023-06-11T07:51:11.237Z,26.00
2023-06-11T07:52:11.251Z,23.94
2023-06-11T07:53:11.269Z,32.78
2023-06-11T07:54:11.295Z,21.95
2023-06-11T07:55:11.326Z,19.64
2023-06-11T07:56:11.340Z,19.88
2023-06-11T07:57:11.352Z,20.64
2023-06-11T07:58:11.357Z,22.29
2023-06-11T07:59:11.383Z,17.99
2023-06-11T08:00:11.726Z,20.38
2023-06-11T08:01:11.478Z,21.46
2023-06-11T08:02:11.600Z,34.85
2023-06-11T08:03:11.599Z,30.16
2023-06-11T08:04:11.585Z,41.68
2023-06-11T08:05:11.633Z,72.78
2023-06-11T08:06:11.824Z,28.37
2023-06-11T08:07:11.708Z,42.59
2023-06-11T08:08:11.719Z,50.79
2023-06-11T08:09:11.740Z,33.08
2023-06-11T08:10:11.893Z,27.80
2023-06-11T08:11:11.812Z,19.05
2023-06-11T08:12:11.829Z,11.35
2023-06-11T08:13:11.871Z,6.38
2023-06-11T08:14:11.932Z,5.18
2023-06-11T08:15:12.001Z,5.72
2023-06-11T08:16:12.053Z,4.76
2023-06-11T08:17:12.090Z,5.39
2023-06-11T08:18:12.110Z,4.00
2023-06-11T08:19:12.094Z,1.99
2023-06-11T08:20:12.362Z,1.69
2023-06-11T08:21:12.174Z,0.89
2023-06-11T08:22:12.179Z,1.54
2023-06-11T08:23:12.181Z,2.39
2023-06-11T08:24:12.302Z,1.93
2023-06-11T08:25:12.300Z,1.49
2023-06-11T08:26:12.309Z,1.47
2023-06-11T08:27:12.322Z,0.81
2023-06-11T08:28:12.357Z,0.59
2023-06-11T08:29:12.427Z,0.48
2023-06-11T08:30:12.626Z,0.28
2023-06-11T08:31:12.490Z,0.64
2023-06-11T08:32:12.567Z,0.85
2023-06-11T08:33:12.573Z,0.61
2023-06-11T08:34:12.584Z,0.62
2023-06-11T08:35:12.653Z,0.62
2023-06-11T08:36:12.563Z,0.44
2023-06-11T08:37:12.611Z,0.67
2023-06-11T08:38:12.642Z,1.22
2023-06-11T08:39:12.646Z,0.51
2023-06-11T08:40:12.897Z,0.68
2023-06-11T08:41:12.719Z,0.88
2023-06-11T08:42:12.716Z,0.41
2023-06-11T08:43:12.776Z,0.27
2023-06-11T08:44:12.844Z,0.22
2023-06-11T08:45:12.906Z,0.16
2023-06-11T08:46:12.889Z,0.18
2023-06-11T08:47:12.892Z,0.16
2023-06-11T08:48:12.974Z,0.16
2023-06-11T08:49:12.979Z,0.16
2023-06-11T08:50:13.133Z,0.16
2023-06-11T08:51:13.021Z,0.16
2023-06-11T08:52:13.069Z,0.18
2023-06-11T08:53:13.025Z,0.34
2023-06-11T08:54:13.048Z,0.41
2023-06-11T08:55:13.105Z,0.47
2023-06-11T08:56:13.122Z,0.56
2023-06-11T08:57:13.155Z,0.52
2023-06-11T08:58:13.190Z,0.43
2023-06-11T08:59:13.192Z,0.42
2023-06-11T09:00:13.512Z,0.27
2023-06-11T09:01:13.253Z,0.17
2023-06-11T09:02:13.298Z,0.18
2023-06-11T09:03:13.369Z,1.67
2023-06-11T09:04:13.384Z,0.22
2023-06-11T09:05:13.423Z,0.29
2023-06-11T09:06:13.420Z,0.32
2023-06-11T09:07:13.448Z,0.44
2023-06-11T09:08:13.532Z,0.53
2023-06-11T09:09:13.465Z,1.17
2023-06-11T09:10:13.613Z,3.48
2023-06-11T09:11:13.554Z,2.54
2023-06-11T09:12:13.568Z,4.58
2023-06-11T09:13:13.621Z,3.73
2023-06-11T09:14:13.628Z,3.25
2023-06-11T09:15:13.664Z,3.40
2023-06-11T09:16:13.771Z,4.41
2023-06-11T09:17:13.725Z,3.46
2023-06-11T09:18:13.838Z,3.54
2023-06-11T09:19:13.814Z,5.26
2023-06-11T09:20:14.259Z,7.52
2023-06-11T09:21:13.865Z,7.17
2023-06-11T09:22:13.914Z,5.17
2023-06-11T09:23:13.912Z,3.27
2023-06-11T09:24:13.985Z,2.81
2023-06-11T09:25:14.204Z,2.26
2023-06-11T09:26:14.051Z,1.52
2023-06-11T09:27:14.083Z,1.87
2023-06-11T09:28:14.091Z,3.51
2023-06-11T09:29:14.150Z,3.70
2023-06-11T09:30:14.573Z,3.87
2023-06-11T09:31:14.204Z,3.37
2023-06-11T09:32:32.503Z,2.46
2023-06-11T09:33:15.299Z,2.50
2023-06-11T09:34:14.220Z,2.52
2023-06-11T09:35:14.207Z,2.55
2023-06-11T09:36:14.247Z,2.63
2023-06-11T09:37:14.193Z,2.56
2023-06-11T09:38:14.208Z,2.57
2023-06-11T09:39:14.197Z,2.99
2023-06-11T09:40:14.289Z,3.48
2023-06-11T09:41:14.160Z,2.91
2023-06-11T09:42:14.177Z,3.66
2023-06-11T09:43:14.184Z,3.06
2023-06-11T09:44:14.128Z,2.67
2023-06-11T09:45:14.141Z,2.68
2023-06-11T09:46:14.226Z,2.43
2023-06-11T09:47:14.156Z,1.50
2023-06-11T09:48:14.159Z,1.35
2023-06-11T09:49:14.171Z,1.47
2023-06-11T09:50:14.297Z,1.02
2023-06-11T09:51:14.232Z,1.25
2023-06-11T09:52:14.271Z,1.32
2023-06-11T09:53:14.294Z,1.56
2023-06-11T09:54:14.313Z,1.25
2023-06-11T09:55:14.387Z,1.01
2023-06-11T09:56:14.423Z,1.16
2023-06-11T09:57:14.425Z,1.25
2023-06-11T09:58:14.469Z,0.62
2023-06-11T09:59:14.474Z,0.61
2023-06-11T10:00:15.357Z,0.51
2023-06-11T10:01:14.546Z,0.86
2023-06-11T10:02:14.570Z,1.36
2023-06-11T10:03:14.670Z,1.04
2023-06-11T10:04:14.681Z,0.82
2023-06-11T10:05:14.898Z,0.80
2023-06-11T10:06:17.014Z,0.49
2023-06-11T10:07:14.672Z,0.49
2023-06-11T10:08:14.682Z,0.38
2023-06-11T10:09:14.645Z,0.58
2023-06-11T10:10:14.663Z,1.01
2023-06-11T10:11:14.683Z,1.43
2023-06-11T10:12:17.151Z,0.53
2023-06-11T10:13:14.650Z,0.52
2023-06-11T10:14:14.673Z,0.37
2023-06-11T10:15:14.720Z,0.33
2023-06-11T10:16:14.631Z,0.99
2023-06-11T10:17:14.609Z,0.62
2023-06-11T10:18:14.677Z,0.66
2023-06-11T10:19:14.625Z,0.64
2023-06-11T10:20:14.656Z,0.73
2023-06-11T10:21:14.618Z,0.63
2023-06-11T10:22:14.555Z,0.92
2023-06-11T10:23:14.617Z,0.67
2023-06-11T10:24:14.586Z,0.69
2023-06-11T10:25:14.548Z,0.41
2023-06-11T10:26:14.613Z,0.63
2023-06-11T10:27:14.591Z,0.81
2023-06-11T10:28:14.633Z,1.04
2023-06-11T10:29:14.559Z,1.07
2023-06-11T10:30:14.702Z,0.65
2023-06-11T10:31:14.570Z,0.67
2023-06-11T10:32:14.566Z,0.51
2023-06-11T10:33:14.621Z,0.45
2023-06-11T10:34:15.070Z,0.52
2023-06-11T10:35:14.580Z,0.58
2023-06-11T10:36:14.487Z,0.81
2023-06-11T10:37:14.489Z,0.91
2023-06-11T10:38:14.519Z,0.85
2023-06-11T10:39:14.510Z,1.01
2023-06-11T10:40:15.977Z,0.54
2023-06-11T10:41:14.481Z,0.54
2023-06-11T10:42:14.472Z,0.57
2023-06-11T10:43:14.453Z,0.54
2023-06-11T10:44:14.443Z,0.35
2023-06-11T10:45:14.482Z,0.54
2023-06-11T10:46:14.473Z,0.60
2023-06-11T10:47:14.428Z,0.38
2023-06-11T10:48:14.461Z,0.54
2023-06-11T10:49:15.172Z,0.74
2023-06-11T10:50:14.709Z,1.52
2023-06-11T10:51:14.447Z,0.93
2023-06-11T10:52:14.434Z,0.46
2023-06-11T10:53:14.680Z,0.55
2023-06-11T10:54:14.419Z,0.57
2023-06-11T10:55:14.398Z,0.45
2023-06-11T10:56:14.472Z,0.47
2023-06-11T10:57:14.390Z,0.40
2023-06-11T10:58:16.716Z,0.54
2023-06-11T10:59:14.378Z,0.55
2023-06-11T11:00:14.350Z,0.66
2023-06-11T11:01:14.360Z,0.70
2023-06-11T11:02:14.412Z,0.76
2023-06-11T11:03:14.414Z,1.57
2023-06-11T11:04:14.437Z,1.60
2023-06-11T11:05:14.708Z,1.51
2023-06-11T11:06:14.353Z,1.11
2023-06-11T11:07:14.308Z,3.25
2023-06-11T11:08:16.798Z,2.05
2023-06-11T11:09:14.323Z,1.99
2023-06-11T11:10:14.390Z,1.06
2023-06-11T11:11:14.293Z,1.14
2023-06-11T11:12:14.274Z,1.52
2023-06-11T11:13:14.308Z,2.53
2023-06-11T11:14:14.260Z,4.30
2023-06-11T11:15:14.265Z,4.43
2023-06-11T11:16:14.277Z,2.36
2023-06-11T11:17:14.266Z,5.82
2023-06-11T11:18:14.228Z,3.72
2023-06-11T11:19:16.547Z,2.56
2023-06-11T11:20:14.468Z,1.99
2023-06-11T11:21:14.481Z,1.29
2023-06-11T11:22:14.512Z,2.73
2023-06-11T11:23:14.483Z,4.17
2023-06-11T11:24:14.524Z,3.36
2023-06-11T11:25:14.580Z,5.54
2023-06-11T11:26:14.551Z,8.67
2023-06-11T11:27:14.576Z,4.22
2023-06-11T11:28:14.613Z,5.93
2023-06-11T11:29:14.676Z,3.96
2023-06-11T11:30:14.788Z,5.23
2023-06-11T11:31:14.727Z,3.78
2023-06-11T11:32:14.835Z,4.36
2023-06-11T11:33:14.811Z,3.16
2023-06-11T11:34:14.744Z,2.79
2023-06-11T11:35:14.858Z,13.36
2023-06-11T11:36:14.816Z,3.70
2023-06-11T11:37:14.861Z,2.38
2023-06-11T11:38:14.946Z,1.68
2023-06-11T11:39:15.073Z,3.35
2023-06-11T11:40:15.423Z,7.23
2023-06-11T11:41:15.012Z,4.19
2023-06-11T11:42:15.056Z,4.63
2023-06-11T11:43:15.073Z,3.93
2023-06-11T11:44:15.120Z,6.98
2023-06-11T11:45:15.156Z,2.05
2023-06-11T11:46:15.305Z,0.71
2023-06-11T11:47:15.273Z,0.86
2023-06-11T11:48:15.277Z,0.80
2023-06-11T11:49:15.296Z,2.67
2023-06-11T11:50:15.302Z,0.24
2023-06-11T11:51:15.318Z,0.16
2023-06-11T11:52:15.395Z,0.16
2023-06-11T11:53:15.384Z,0.16
2023-06-11T11:54:15.453Z,0.25
2023-06-11T11:55:15.437Z,0.30
2023-06-11T11:56:15.506Z,0.27
2023-06-11T11:57:15.494Z,0.28
2023-06-11T11:58:15.506Z,0.30
2023-06-11T11:59:15.504Z,0.18
2023-06-11T12:01:04.559Z,0.50
2023-06-11T12:02:04.558Z,0.50
2023-06-11T12:03:04.734Z,0.50
2023-06-11T12:04:04.644Z,0.50
2023-06-11T12:05:04.554Z,0.50
2023-06-11T12:06:04.552Z,0.88
2023-06-11T12:07:24.472Z,0.50
2023-06-11T12:08:24.521Z,0.50
2023-06-11T12:09:24.525Z,0.50
2023-06-11T12:10:25.383Z,0.50
2023-06-11T12:11:24.516Z,0.50
2023-06-11T12:12:24.508Z,0.58
2023-06-11T12:13:24.495Z,0.53
2023-06-11T12:14:24.486Z,0.59
2023-06-11T12:15:24.463Z,0.64
2023-06-11T12:16:24.512Z,0.53
2023-06-11T12:17:24.540Z,0.50
2023-06-11T12:18:24.444Z,0.62
2023-06-11T12:19:24.885Z,0.53
2023-06-11T12:20:24.416Z,0.49
2023-06-11T12:21:24.459Z,0.44
2023-06-11T12:22:24.390Z,0.54
2023-06-11T12:23:24.446Z,0.51
2023-06-11T12:24:24.672Z,0.46
2023-06-11T12:25:24.572Z,0.47
2023-06-11T12:26:24.398Z,0.54
2023-06-11T12:27:24.373Z,0.56
2023-06-11T12:28:24.395Z,0.38
2023-06-11T12:29:24.414Z,0.46
2023-06-11T12:30:24.374Z,0.49
2023-06-11T12:31:24.449Z,0.53
2023-06-11T12:32:24.853Z,0.39
2023-06-11T12:33:24.337Z,0.62
2023-06-11T12:34:24.336Z,0.56
2023-06-11T12:35:24.297Z,0.65
2023-06-11T12:36:24.322Z,0.67
2023-06-11T12:37:24.303Z,0.68
2023-06-11T12:38:24.321Z,0.93
2023-06-11T12:39:24.325Z,0.90
2023-06-11T12:40:24.314Z,0.68